createdAt,value
2022-10-25T00:00:06.042Z,99032.00
2022-10-25T00:01:59.285Z,99024.00
2022-10-25T00:03:32.760Z,99016.00
2022-10-25T00:05:06.924Z,99025.00
2022-10-25T00:06:40.039Z,99025.00
2022-10-25T00:08:13.224Z,99025.00
2022-10-25T00:09:46.291Z,99034.00
2022-10-25T00:11:23.690Z,99031.00
2022-10-25T00:12:57.477Z,99028.00
2022-10-25T00:14:30.939Z,99031.00
2022-10-25T00:16:04.465Z,99027.00
2022-10-25T00:17:39.138Z,99032.00
2022-10-25T00:19:14.167Z,99024.00
2022-10-25T00:20:47.416Z,99027.00
2022-10-25T00:22:20.533Z,99034.00
2022-10-25T00:23:54.813Z,99027.00
2022-10-25T00:25:28.206Z,99031.00
2022-10-25T00:27:01.313Z,99030.00
2022-10-25T00:28:34.699Z,99036.00
2022-10-25T00:30:10.060Z,99031.00
2022-10-25T00:31:43.366Z,99027.00
2022-10-25T00:33:17.842Z,99036.00
2022-10-25T00:34:51.029Z,99029.00
2022-10-25T00:36:28.030Z,99036.00
2022-10-25T00:38:01.237Z,99040.00
2022-10-25T00:39:33.574Z,99032.00
2022-10-25T00:41:08.520Z,99040.00
2022-10-25T00:42:41.645Z,99044.00
2022-10-25T00:44:47.302Z,99036.00
2022-10-25T00:46:25.449Z,99039.00
2022-10-25T00:48:04.397Z,99034.00
2022-10-25T00:49:38.199Z,99035.00
2022-10-25T00:51:11.721Z,99036.00
2022-10-25T00:52:48.303Z,99040.00
2022-10-25T00:54:27.545Z,99043.00
2022-10-25T00:56:09.327Z,99050.00
2022-10-25T00:57:47.161Z,99048.00
2022-10-25T00:59:25.414Z,99051.00
2022-10-25T01:00:59.901Z,99044.00
2022-10-25T01:02:34.148Z,99051.00
2022-10-25T01:04:14.765Z,99051.00
2022-10-25T01:05:52.663Z,99040.00
2022-10-25T01:07:26.163Z,99049.00
2022-10-25T01:09:00.326Z,99044.00
2022-10-25T01:10:33.015Z,99044.00
2022-10-25T01:12:07.049Z,99052.00
2022-10-25T01:13:44.936Z,99061.00
2022-10-25T01:15:18.283Z,99056.00
2022-10-25T01:17:02.431Z,99062.00
2022-10-25T01:18:45.010Z,99061.00
2022-10-25T01:21:21.025Z,99064.00
2022-10-25T01:23:06.265Z,99065.00
2022-10-25T01:25:09.801Z,99062.00
2022-10-25T01:27:15.957Z,99064.00
2022-10-25T01:29:16.141Z,99059.00
2022-10-25T01:31:12.878Z,99061.00
2022-10-25T01:33:03.649Z,99063.00
2022-10-25T01:34:44.249Z,99053.00
2022-10-25T01:36:27.319Z,99061.00
2022-10-25T01:38:30.529Z,99059.00
2022-10-25T01:40:19.255Z,99067.00
2022-10-25T01:42:05.304Z,99070.00
2022-10-25T01:43:49.575Z,99063.00
2022-10-25T01:45:27.835Z,99057.00
2022-10-25T01:47:06.333Z,99067.00
2022-10-25T01:48:46.714Z,99071.00
2022-10-25T01:50:26.282Z,99069.00
2022-10-25T01:51:59.349Z,99069.00
2022-10-25T01:53:32.541Z,99061.00
2022-10-25T01:55:09.852Z,99069.00
2022-10-25T01:56:55.989Z,99068.00
2022-10-25T01:58:42.529Z,99071.00
2022-10-25T02:00:19.445Z,99076.00
2022-10-25T02:02:10.318Z,99071.00
2022-10-25T02:03:53.020Z,99072.00
2022-10-25T02:05:31.914Z,99073.00
2022-10-25T02:07:11.462Z,99075.00
2022-10-25T02:08:49.878Z,99077.00
2022-10-25T02:10:32.363Z,99078.00
2022-10-25T02:12:13.788Z,99083.00
2022-10-25T02:14:03.723Z,99082.00
2022-10-25T02:15:43.880Z,99075.00
2022-10-25T02:17:23.843Z,99077.00
2022-10-25T02:19:03.192Z,99066.00
2022-10-25T02:20:36.561Z,99079.00
2022-10-25T02:22:13.042Z,99076.00
2022-10-25T02:23:49.975Z,99078.00
2022-10-25T02:25:23.326Z,99075.00
2022-10-25T02:26:59.150Z,99075.00
2022-10-25T02:28:38.369Z,99076.00
2022-10-25T02:30:11.968Z,99076.00
2022-10-25T02:31:46.050Z,99081.00
2022-10-25T02:33:20.889Z,99082.00
2022-10-25T02:34:53.179Z,99076.00
2022-10-25T02:36:26.677Z,99085.00
2022-10-25T02:37:58.942Z,99092.00
2022-10-25T02:39:32.293Z,99078.00
2022-10-25T02:41:05.957Z,99089.00
2022-10-25T02:42:39.051Z,99091.00
2022-10-25T02:44:12.246Z,99091.00
2022-10-25T02:45:45.343Z,99083.00
2022-10-25T02:47:18.607Z,99085.00
2022-10-25T02:48:53.501Z,99085.00
2022-10-25T02:50:26.934Z,99076.00
2022-10-25T02:51:59.295Z,99082.00
2022-10-25T02:53:33.517Z,99084.00
2022-10-25T02:55:08.022Z,99088.00
2022-10-25T02:56:41.410Z,99081.00
2022-10-25T02:58:14.602Z,99082.00
2022-10-25T02:59:46.913Z,99089.00
2022-10-25T03:01:21.409Z,99082.00
2022-10-25T03:02:54.890Z,99083.00
2022-10-25T03:04:29.335Z,99094.00
2022-10-25T03:06:02.018Z,99091.00
2022-10-25T03:07:35.209Z,99089.00
2022-10-25T03:09:08.344Z,99094.00
2022-10-25T03:10:41.534Z,99091.00
2022-10-25T03:12:14.826Z,99094.00
2022-10-25T03:13:48.076Z,99083.00
2022-10-25T03:15:21.274Z,99094.00
2022-10-25T03:16:54.435Z,99105.00
2022-10-25T03:18:27.999Z,99097.00
2022-10-25T03:20:02.692Z,99092.00
2022-10-25T03:21:38.616Z,99094.00
2022-10-25T03:23:14.942Z,99091.00
2022-10-25T03:24:48.107Z,99093.00
2022-10-25T03:26:21.422Z,99097.00
2022-10-25T03:27:54.853Z,99098.00
2022-10-25T03:29:28.330Z,99097.00
2022-10-25T03:31:01.839Z,99094.00
2022-10-25T03:32:34.061Z,99099.00
2022-10-25T03:34:07.557Z,99103.00
2022-10-25T03:35:42.253Z,99097.00
2022-10-25T03:37:15.436Z,99086.00
2022-10-25T03:38:47.681Z,99099.00
2022-10-25T03:40:22.184Z,99101.00
2022-10-25T03:41:55.316Z,99098.00
2022-10-25T03:43:28.551Z,99105.00
2022-10-25T03:45:01.861Z,99103.00
2022-10-25T03:46:35.122Z,99108.00
2022-10-25T03:48:08.949Z,99110.00
2022-10-25T03:49:42.141Z,99109.00
2022-10-25T03:51:16.766Z,99100.00
2022-10-25T03:52:50.039Z,99102.00
2022-10-25T03:54:25.550Z,99107.00
2022-10-25T03:56:01.582Z,99106.00
2022-10-25T03:57:35.247Z,99101.00
2022-10-25T03:59:08.832Z,99108.00
2022-10-25T04:00:42.180Z,99110.00
2022-10-25T04:02:16.310Z,99116.00
2022-10-25T04:03:49.445Z,99113.00
2022-10-25T04:05:21.652Z,99117.00
2022-10-25T04:06:56.103Z,99113.00
2022-10-25T04:08:29.475Z,99117.00
2022-10-25T04:10:02.733Z,99123.00
2022-10-25T04:11:35.929Z,99118.00
2022-10-25T04:13:09.196Z,99127.00
2022-10-25T04:14:42.941Z,99121.00
2022-10-25T04:16:19.028Z,99118.00
2022-10-25T04:17:53.651Z,99134.00
2022-10-25T04:19:26.830Z,99119.00
2022-10-25T04:21:00.088Z,99126.00
2022-10-25T04:24:08.790Z,99132.00
2022-10-25T04:25:42.029Z,99134.00
2022-10-25T04:27:15.275Z,99134.00
2022-10-25T04:28:52.377Z,99142.00
2022-10-25T04:30:25.785Z,99144.00
2022-10-25T04:31:58.966Z,99146.00
2022-10-25T04:33:32.114Z,99139.00
2022-10-25T04:35:06.695Z,99140.00
2022-10-25T04:36:40.018Z,99140.00
2022-10-25T04:38:14.597Z,99134.00
2022-10-25T04:39:47.762Z,99144.00
2022-10-25T04:41:22.030Z,99136.00
2022-10-25T04:42:55.158Z,99138.00
2022-10-25T04:44:28.433Z,99144.00
2022-10-25T04:46:02.851Z,99135.00
2022-10-25T04:47:36.322Z,99142.00
2022-10-25T04:49:12.418Z,99145.00
2022-10-25T04:50:46.450Z,99143.00
2022-10-25T04:52:20.613Z,99147.00
2022-10-25T04:53:56.555Z,99138.00
2022-10-25T04:55:29.682Z,99147.00
2022-10-25T04:57:03.130Z,99142.00
2022-10-25T04:58:37.667Z,99142.00
2022-10-25T05:00:12.775Z,99151.00
2022-10-25T05:01:46.106Z,99148.00
2022-10-25T05:03:20.107Z,99145.00
2022-10-25T05:04:53.277Z,99143.00
2022-10-25T05:06:28.132Z,99156.00
2022-10-25T05:08:01.196Z,99150.00
2022-10-25T05:09:35.801Z,99156.00
2022-10-25T05:11:09.933Z,99159.00
2022-10-25T05:12:43.577Z,99161.00
2022-10-25T05:14:17.095Z,99158.00
2022-10-25T05:15:56.249Z,99156.00
2022-10-25T05:17:31.047Z,99158.00
2022-10-25T05:19:04.294Z,99166.00
2022-10-25T05:20:37.471Z,99159.00
2022-10-25T05:22:10.673Z,99163.00
2022-10-25T05:23:43.018Z,99168.00
2022-10-25T05:25:18.038Z,99164.00
2022-10-25T05:26:51.280Z,99169.00
2022-10-25T05:28:24.727Z,99168.00
2022-10-25T05:29:57.943Z,99173.00
2022-10-25T05:31:44.779Z,99178.00
2022-10-25T05:33:17.096Z,99172.00
2022-10-25T05:34:51.060Z,99177.00
2022-10-25T05:36:25.299Z,99175.00
2022-10-25T05:37:59.430Z,99177.00
2022-10-25T05:39:32.567Z,99175.00
2022-10-25T05:41:06.802Z,99185.00
2022-10-25T05:42:40.017Z,99176.00
2022-10-25T05:44:14.858Z,99179.00
2022-10-25T05:45:48.123Z,99187.00
2022-10-25T05:47:21.225Z,99187.00
2022-10-25T05:48:55.025Z,99187.00
2022-10-25T05:50:28.592Z,99184.00
2022-10-25T05:52:01.859Z,99185.00
2022-10-25T05:53:34.249Z,99180.00
2022-10-25T05:55:08.383Z,99189.00
2022-10-25T05:56:45.074Z,99196.00
2022-10-25T05:58:18.321Z,99194.00
2022-10-25T05:59:51.470Z,99201.00
2022-10-25T06:01:26.988Z,99204.00
2022-10-25T06:03:02.661Z,99208.00
2022-10-25T06:04:35.746Z,99207.00
2022-10-25T06:06:11.767Z,99213.00
2022-10-25T06:07:45.031Z,99209.00
2022-10-25T06:09:19.161Z,99209.00
2022-10-25T06:10:52.265Z,99215.00
2022-10-25T06:12:26.785Z,99216.00
2022-10-25T06:14:00.086Z,99218.00
2022-10-25T06:15:33.221Z,99215.00
2022-10-25T06:17:06.373Z,99222.00
2022-10-25T06:18:39.974Z,99222.00
2022-10-25T06:20:13.169Z,99226.00
2022-10-25T06:21:46.749Z,99226.00
2022-10-25T06:23:20.009Z,99220.00
2022-10-25T06:24:53.190Z,99216.00
2022-10-25T06:26:30.226Z,99224.00
2022-10-25T06:28:05.820Z,99224.00
2022-10-25T06:29:38.995Z,99231.00
2022-10-25T06:31:16.067Z,99229.00
2022-10-25T06:32:50.206Z,99244.00
2022-10-25T06:34:23.327Z,99241.00
2022-10-25T06:35:56.976Z,99241.00
2022-10-25T06:37:30.112Z,99243.00
2022-10-25T06:39:05.444Z,99253.00
2022-10-25T06:40:40.131Z,99247.00
2022-10-25T06:42:13.313Z,99256.00
2022-10-25T06:43:49.479Z,99252.00
2022-10-25T06:45:23.393Z,99251.00
2022-10-25T06:47:16.579Z,99264.00
2022-10-25T06:48:50.250Z,99266.00
2022-10-25T06:50:23.409Z,99258.00
2022-10-25T06:51:56.754Z,99267.00
2022-10-25T06:53:30.039Z,99270.00
2022-10-25T06:55:03.306Z,99268.00
2022-10-25T06:56:37.142Z,99266.00
2022-10-25T06:58:10.289Z,99276.00
2022-10-25T06:59:45.883Z,99270.00
2022-10-25T07:01:23.732Z,99278.00
2022-10-25T07:02:58.664Z,99275.00
2022-10-25T07:04:32.631Z,99281.00
2022-10-25T07:06:09.132Z,99286.00
2022-10-25T07:07:42.339Z,99295.00
2022-10-25T07:09:15.668Z,99284.00
2022-10-25T07:10:54.863Z,99289.00
2022-10-25T07:12:28.137Z,99292.00
2022-10-25T07:14:04.210Z,99289.00
2022-10-25T07:15:41.423Z,99297.00
2022-10-25T07:17:16.066Z,99297.00
2022-10-25T07:18:50.186Z,99297.00
2022-10-25T07:20:23.937Z,99289.00
2022-10-25T07:21:57.258Z,99309.00
2022-10-25T07:23:31.467Z,99321.00
2022-10-25T07:25:05.851Z,99311.00
2022-10-25T07:26:40.301Z,99313.00
2022-10-25T07:28:13.736Z,99308.00
2022-10-25T07:29:46.978Z,99312.00
2022-10-25T07:31:24.385Z,99320.00
2022-10-25T07:32:57.610Z,99315.00
2022-10-25T07:34:31.185Z,99321.00
2022-10-25T07:36:10.746Z,99319.00
2022-10-25T07:37:45.246Z,99323.00
2022-10-25T07:39:18.705Z,99321.00
2022-10-25T07:40:57.475Z,99315.00
2022-10-25T07:42:30.678Z,99317.00
2022-10-25T07:44:04.236Z,99321.00
2022-10-25T07:45:39.163Z,99323.00
2022-10-25T07:47:13.494Z,99328.00
2022-10-25T07:48:46.711Z,99326.00
2022-10-25T07:50:20.566Z,99328.00
2022-10-25T07:51:53.925Z,99329.00
2022-10-25T07:53:27.576Z,99325.00
2022-10-25T07:55:00.794Z,99333.00
2022-10-25T07:56:33.913Z,99335.00
2022-10-25T07:58:10.508Z,99331.00
2022-10-25T07:59:43.937Z,99332.00
2022-10-25T08:01:22.608Z,99336.00
2022-10-25T08:02:57.466Z,99335.00
2022-10-25T08:04:32.842Z,99334.00
2022-10-25T08:06:07.238Z,99334.00
2022-10-25T08:07:40.512Z,99332.00
2022-10-25T08:09:14.880Z,99332.00
2022-10-25T08:10:54.089Z,99338.00
2022-10-25T08:12:27.499Z,99335.00
2022-10-25T08:14:00.772Z,99342.00
2022-10-25T08:15:35.545Z,99337.00
2022-10-25T08:17:08.807Z,99333.00
2022-10-25T08:18:44.054Z,99341.00
2022-10-25T08:20:17.305Z,99342.00
2022-10-25T08:21:50.856Z,99327.00
2022-10-25T08:23:25.176Z,99343.00
2022-10-25T08:24:58.502Z,99343.00
2022-10-25T08:26:36.598Z,99334.00
2022-10-25T08:28:10.833Z,99329.00
2022-10-25T08:29:44.102Z,99339.00
2022-10-25T08:31:17.446Z,99344.00
2022-10-25T08:32:51.517Z,99337.00
2022-10-25T08:34:27.463Z,99338.00
2022-10-25T08:36:03.766Z,99329.00
2022-10-25T08:37:36.974Z,99335.00
2022-10-25T08:39:10.384Z,99342.00
2022-10-25T08:40:58.313Z,99349.00
2022-10-25T08:42:43.106Z,99348.00
2022-10-25T08:44:35.455Z,99344.00
2022-10-25T08:46:17.364Z,99347.00
2022-10-25T08:47:56.541Z,99351.00
2022-10-25T08:49:52.289Z,99341.00
2022-10-25T08:51:34.881Z,99349.00
2022-10-25T08:53:19.266Z,99349.00
2022-10-25T08:54:52.611Z,99346.00
2022-10-25T08:56:27.968Z,99351.00
2022-10-25T08:58:04.754Z,99351.00
2022-10-25T08:59:43.986Z,99361.00
2022-10-25T09:01:30.140Z,99362.00
2022-10-25T09:03:05.107Z,99356.00
2022-10-25T09:04:39.577Z,99361.00
2022-10-25T09:06:27.214Z,99354.00
2022-10-25T09:08:41.197Z,99364.00
2022-10-25T09:10:33.557Z,99365.00
2022-10-25T09:12:22.219Z,99363.00
2022-10-25T09:14:06.339Z,99365.00
2022-10-25T09:15:55.675Z,99359.00
2022-10-25T09:17:44.956Z,99360.00
2022-10-25T09:19:29.014Z,99363.00
2022-10-25T09:21:17.531Z,99367.00
2022-10-25T09:23:00.783Z,99364.00
2022-10-25T09:24:42.631Z,99373.00
2022-10-25T09:26:26.997Z,99368.00
2022-10-25T09:28:04.509Z,99359.00
2022-10-25T09:29:42.530Z,99364.00
2022-10-25T09:31:23.114Z,99369.00
2022-10-25T09:33:01.254Z,99381.00
2022-10-25T09:34:34.720Z,99379.00
2022-10-25T09:36:12.863Z,99370.00
2022-10-25T09:37:50.831Z,99380.00
2022-10-25T09:39:38.272Z,99381.00
2022-10-25T09:41:18.022Z,99387.00
2022-10-25T09:42:56.818Z,99382.00
2022-10-25T09:44:40.989Z,99382.00
2022-10-25T09:46:21.747Z,99386.00
2022-10-25T09:48:06.619Z,99388.00
2022-10-25T09:49:50.166Z,99389.00
2022-10-25T09:51:36.926Z,99386.00
2022-10-25T09:53:14.906Z,99388.00
2022-10-25T09:54:55.825Z,99387.00
2022-10-25T09:56:29.258Z,99387.00
2022-10-25T09:58:03.235Z,99393.00
2022-10-25T09:59:36.560Z,99394.00
2022-10-25T10:01:17.913Z,99394.00
2022-10-25T10:02:51.394Z,99403.00
2022-10-25T10:04:35.991Z,99406.00
2022-10-25T10:06:20.991Z,99411.00
2022-10-25T10:07:55.675Z,99407.00
2022-10-25T10:09:32.994Z,99411.00
2022-10-25T10:11:07.059Z,99412.00
2022-10-25T10:12:47.948Z,99423.00
2022-10-25T10:14:35.662Z,99425.00
2022-10-25T10:16:22.772Z,99430.00
2022-10-25T10:18:31.118Z,99421.00
2022-10-25T10:20:15.408Z,99437.00
2022-10-25T10:21:53.859Z,99428.00
2022-10-25T10:23:32.402Z,99429.00
2022-10-25T10:25:06.834Z,99419.00
2022-10-25T10:26:49.071Z,99429.00
2022-10-25T10:28:23.170Z,99441.00
2022-10-25T10:30:00.818Z,99423.00
2022-10-25T10:31:40.119Z,99431.00
2022-10-25T10:33:18.398Z,99420.00
2022-10-25T10:34:55.293Z,99431.00
2022-10-25T10:36:31.373Z,99431.00
2022-10-25T10:38:22.798Z,99436.00
2022-10-25T10:40:00.641Z,99433.00
2022-10-25T10:41:33.971Z,99435.00
2022-10-25T10:43:26.918Z,99441.00
2022-10-25T10:45:19.864Z,99441.00
2022-10-25T10:46:54.751Z,99445.00
2022-10-25T10:48:33.293Z,99441.00
2022-10-25T10:50:14.751Z,99446.00
2022-10-25T10:51:48.139Z,99432.00
2022-10-25T10:53:25.619Z,99438.00
2022-10-25T10:55:01.111Z,99440.00
2022-10-25T10:56:34.496Z,99438.00
2022-10-25T10:58:20.851Z,99445.00
2022-10-25T10:59:57.449Z,99440.00
2022-10-25T11:01:34.317Z,99444.00
2022-10-25T11:03:07.660Z,99438.00
2022-10-25T11:04:51.764Z,99442.00
2022-10-25T11:06:29.090Z,99445.00
2022-10-25T11:08:17.732Z,99447.00
2022-10-25T11:09:51.080Z,99451.00
2022-10-25T11:11:25.561Z,99451.00
2022-10-25T11:13:19.613Z,99445.00
2022-10-25T11:14:53.886Z,99440.00
2022-10-25T11:16:48.118Z,99450.00
2022-10-25T11:18:34.954Z,99454.00
2022-10-25T11:20:27.135Z,99443.00
2022-10-25T11:22:27.378Z,99445.00
2022-10-25T11:24:19.637Z,99442.00
2022-10-25T11:26:02.530Z,99451.00
2022-10-25T11:27:52.915Z,99439.00
2022-10-25T11:30:04.292Z,99447.00
2022-10-25T11:31:56.150Z,99444.00
2022-10-25T11:33:49.515Z,99446.00
2022-10-25T11:35:58.559Z,99444.00
2022-10-25T11:37:40.902Z,99440.00
2022-10-25T11:39:48.195Z,99440.00
2022-10-25T11:41:39.029Z,99442.00
2022-10-25T11:43:52.334Z,99441.00
2022-10-25T11:45:41.261Z,99452.00
2022-10-25T11:47:29.194Z,99443.00
2022-10-25T11:49:34.422Z,99443.00
2022-10-25T11:51:18.316Z,99446.00
2022-10-25T11:53:17.072Z,99444.00
2022-10-25T11:55:02.193Z,99450.00
2022-10-25T11:56:46.924Z,99445.00
2022-10-25T11:58:48.188Z,99449.00
2022-10-25T12:00:24.387Z,99440.00
2022-10-25T12:02:22.190Z,99441.00
2022-10-25T12:04:26.999Z,99433.00
2022-10-25T12:06:19.181Z,99434.00
2022-10-25T12:08:08.511Z,99426.00
2022-10-25T12:09:58.051Z,99425.00
2022-10-25T12:11:38.578Z,99424.00
2022-10-25T12:13:17.923Z,99426.00
2022-10-25T12:14:59.097Z,99418.00
2022-10-25T12:16:36.559Z,99427.00
2022-10-25T12:18:21.505Z,99425.00
2022-10-25T12:20:02.842Z,99424.00
2022-10-25T12:21:44.255Z,99429.00
2022-10-25T12:23:23.057Z,99439.00
2022-10-25T12:25:01.281Z,99433.00
2022-10-25T12:26:40.457Z,99431.00
2022-10-25T12:28:26.061Z,99422.00
2022-10-25T12:30:07.646Z,99425.00
2022-10-25T12:31:49.388Z,99426.00
2022-10-25T12:33:35.663Z,99419.00
2022-10-25T12:35:20.218Z,99435.00
2022-10-25T12:36:57.654Z,99427.00
2022-10-25T12:38:36.525Z,99422.00
2022-10-25T12:40:18.031Z,99429.00
2022-10-25T12:41:59.515Z,99428.00
2022-10-25T12:43:43.785Z,99435.00
2022-10-25T12:46:05.520Z,99432.00
2022-10-25T12:47:58.551Z,99436.00
2022-10-25T12:50:08.166Z,99433.00
2022-10-25T12:52:01.571Z,99440.00
2022-10-25T12:54:15.850Z,99438.00
2022-10-25T12:56:03.341Z,99446.00
2022-10-25T12:57:52.094Z,99448.00
2022-10-25T12:59:56.582Z,99445.00
2022-10-25T13:01:55.862Z,99432.00
2022-10-25T13:04:10.065Z,99435.00
2022-10-25T13:06:22.670Z,99430.00
2022-10-25T13:07:59.981Z,99432.00
2022-10-25T13:09:37.099Z,99428.00
2022-10-25T13:11:11.473Z,99426.00
2022-10-25T13:12:59.778Z,99433.00
2022-10-25T13:14:37.752Z,99416.00
2022-10-25T13:16:11.785Z,99427.00
2022-10-25T13:20:00.816Z,99427.00
2022-10-25T13:22:13.995Z,99424.00
2022-10-25T13:24:03.601Z,99425.00
2022-10-25T13:26:08.089Z,99424.00
2022-10-25T13:28:32.712Z,99430.00
2022-10-25T13:30:31.857Z,99425.00
2022-10-25T13:32:19.649Z,99437.00
2022-10-25T13:34:34.528Z,99427.00
2022-10-25T13:36:09.298Z,99430.00
2022-10-25T13:37:45.561Z,99431.00
2022-10-25T13:39:27.335Z,99429.00
2022-10-25T13:41:17.265Z,99430.00
2022-10-25T13:43:01.050Z,99427.00
2022-10-25T13:44:39.205Z,99430.00
2022-10-25T13:46:12.887Z,99426.00
2022-10-25T13:47:50.317Z,99427.00
2022-10-25T13:49:35.475Z,99432.00
2022-10-25T13:51:14.384Z,99427.00
2022-10-25T13:53:02.567Z,99430.00
2022-10-25T13:54:49.251Z,99437.00
2022-10-25T13:56:37.349Z,99438.00
2022-10-25T13:58:44.239Z,99439.00
2022-10-25T14:00:38.724Z,99435.00
2022-10-25T14:02:22.078Z,99437.00
2022-10-25T14:04:21.297Z,99440.00
2022-10-25T14:06:27.685Z,99439.00
2022-10-25T14:08:20.045Z,99437.00
2022-10-25T14:09:54.998Z,99444.00
2022-10-25T14:11:39.315Z,99441.00
2022-10-25T14:13:26.388Z,99436.00
2022-10-25T14:15:08.792Z,99429.00
2022-10-25T14:16:56.926Z,99434.00
2022-10-25T14:18:34.492Z,99450.00
2022-10-25T14:20:28.815Z,99429.00
2022-10-25T14:22:05.117Z,99432.00
2022-10-25T14:23:39.676Z,99432.00
2022-10-25T14:25:24.688Z,99423.00
2022-10-25T14:27:01.500Z,99426.00
2022-10-25T14:28:36.805Z,99430.00
2022-10-25T14:31:55.629Z,99426.00
2022-10-25T14:33:32.139Z,99419.00
2022-10-25T14:35:07.201Z,99424.00
2022-10-25T14:36:41.494Z,99427.00
2022-10-25T14:38:18.482Z,99423.00
2022-10-25T14:39:55.397Z,99427.00
2022-10-25T14:41:31.823Z,99429.00
2022-10-25T14:43:25.919Z,99432.00
2022-10-25T14:44:59.432Z,99438.00
2022-10-25T14:46:33.916Z,99429.00
2022-10-25T14:48:11.646Z,99433.00
2022-10-25T14:49:45.438Z,99430.00
2022-10-25T14:51:22.781Z,99429.00
2022-10-25T14:52:58.062Z,99431.00
2022-10-25T14:54:36.540Z,99431.00
2022-10-25T14:56:09.806Z,99429.00
2022-10-25T14:57:46.893Z,99420.00
2022-10-25T14:59:26.302Z,99414.00
2022-10-25T15:01:04.763Z,99417.00
2022-10-25T15:02:53.474Z,99413.00
2022-10-25T15:04:45.009Z,99417.00
2022-10-25T15:06:20.996Z,99409.00
2022-10-25T15:07:57.416Z,99423.00
2022-10-25T15:09:46.915Z,99416.00
2022-10-25T15:11:21.231Z,99415.00
2022-10-25T15:12:54.706Z,99410.00
2022-10-25T15:14:32.542Z,99413.00
2022-10-25T15:16:30.514Z,99425.00
2022-10-25T15:18:05.346Z,99423.00
2022-10-25T15:20:05.484Z,99422.00
2022-10-25T15:21:43.402Z,99422.00
2022-10-25T15:23:22.366Z,99424.00
2022-10-25T15:24:55.813Z,99417.00
2022-10-25T15:26:34.672Z,99411.00
2022-10-25T15:28:14.554Z,99417.00
2022-10-25T15:31:36.009Z,99422.00
2022-10-25T15:33:15.912Z,99424.00
2022-10-25T15:34:58.422Z,99420.00
2022-10-25T15:36:41.522Z,99419.00
2022-10-25T15:38:17.400Z,99420.00
2022-10-25T15:39:53.031Z,99421.00
2022-10-25T15:41:27.274Z,99420.00
2022-10-25T15:43:00.375Z,99408.00
2022-10-25T15:44:33.651Z,99415.00
2022-10-25T15:46:08.097Z,99398.00
2022-10-25T15:47:42.520Z,99406.00
2022-10-25T15:49:16.879Z,99395.00
2022-10-25T15:50:54.188Z,99397.00
2022-10-25T15:52:28.922Z,99411.00
2022-10-25T15:54:02.107Z,99408.00
2022-10-25T15:55:35.459Z,99408.00
2022-10-25T15:57:08.564Z,99409.00
2022-10-25T15:58:41.735Z,99409.00
2022-10-25T16:00:16.974Z,99410.00
2022-10-25T16:01:55.519Z,99414.00
2022-10-25T16:03:28.895Z,99414.00
2022-10-25T16:05:02.185Z,99408.00
2022-10-25T16:06:35.372Z,99411.00
2022-10-25T16:08:11.036Z,99412.00
2022-10-25T16:09:44.777Z,99405.00
2022-10-25T16:11:21.650Z,99405.00
2022-10-25T16:12:59.975Z,99408.00
2022-10-25T16:14:34.678Z,99409.00
2022-10-25T16:16:28.130Z,99416.00
2022-10-25T16:18:01.636Z,99407.00
2022-10-25T16:19:34.800Z,99410.00
2022-10-25T16:21:08.254Z,99408.00
2022-10-25T16:22:41.413Z,99416.00
2022-10-25T16:24:16.244Z,99406.00
2022-10-25T16:25:49.841Z,99412.00
2022-10-25T16:27:23.237Z,99411.00
2022-10-25T16:29:01.351Z,99411.00
2022-10-25T16:30:36.608Z,99415.00
2022-10-25T16:32:11.526Z,99417.00
2022-10-25T16:33:44.650Z,99421.00
2022-10-25T16:35:21.623Z,99407.00
2022-10-25T16:36:54.913Z,99403.00
2022-10-25T16:38:28.196Z,99405.00
2022-10-25T16:40:03.076Z,99407.00
2022-10-25T16:41:39.547Z,99412.00
2022-10-25T16:43:17.616Z,99419.00
2022-10-25T16:44:50.829Z,99415.00
2022-10-25T16:46:24.691Z,99413.00
2022-10-25T16:47:58.403Z,99408.00
2022-10-25T16:49:32.601Z,99423.00
2022-10-25T16:51:06.488Z,99416.00
2022-10-25T16:52:40.416Z,99419.00
2022-10-25T16:54:15.658Z,99419.00
2022-10-25T16:55:50.718Z,99413.00
2022-10-25T16:57:24.227Z,99411.00
2022-10-25T16:58:57.345Z,99404.00
2022-10-25T17:00:35.484Z,99409.00
2022-10-25T17:02:18.578Z,99418.00
2022-10-25T17:03:52.765Z,99406.00
2022-10-25T17:05:29.582Z,99405.00
2022-10-25T17:07:03.330Z,99408.00
2022-10-25T17:08:36.574Z,99405.00
2022-10-25T17:10:10.923Z,99407.00
2022-10-25T17:11:47.056Z,99413.00
2022-10-25T17:13:20.197Z,99420.00
2022-10-25T17:14:54.359Z,99414.00
2022-10-25T17:16:27.788Z,99414.00
2022-10-25T17:18:01.058Z,99412.00
2022-10-25T17:19:34.264Z,99416.00
2022-10-25T17:21:10.334Z,99418.00
2022-10-25T17:22:44.410Z,99412.00
2022-10-25T17:24:18.794Z,99416.00
2022-10-25T17:25:58.302Z,99414.00
2022-10-25T17:27:34.999Z,99414.00
2022-10-25T17:29:08.321Z,99411.00
2022-10-25T17:30:43.105Z,99414.00
2022-10-25T17:32:16.253Z,99406.00
2022-10-25T17:34:01.170Z,99411.00
2022-10-25T17:35:34.489Z,99409.00
2022-10-25T17:37:07.591Z,99399.00
2022-10-25T17:38:41.798Z,99401.00
2022-10-25T17:40:15.251Z,99404.00
2022-10-25T17:41:48.755Z,99401.00
2022-10-25T17:43:23.338Z,99402.00
2022-10-25T17:44:57.534Z,99406.00
2022-10-25T17:46:33.117Z,99406.00
2022-10-25T17:48:07.016Z,99407.00
2022-10-25T17:49:40.312Z,99406.00
2022-10-25T17:51:16.522Z,99408.00
2022-10-25T17:52:51.072Z,99405.00
2022-10-25T17:54:24.774Z,99408.00
2022-10-25T17:55:58.148Z,99407.00
2022-10-25T17:57:32.569Z,99404.00
2022-10-25T17:59:08.109Z,99405.00
2022-10-25T18:00:41.622Z,99407.00
2022-10-25T18:02:15.184Z,99405.00
2022-10-25T18:03:54.077Z,99400.00
2022-10-25T18:05:27.380Z,99407.00
2022-10-25T18:07:00.866Z,99399.00
2022-10-25T18:08:37.392Z,99394.00
2022-10-25T18:10:11.011Z,99402.00
2022-10-25T18:11:45.577Z,99393.00
2022-10-25T18:13:21.387Z,99405.00
2022-10-25T18:14:56.592Z,99407.00
2022-10-25T18:16:31.477Z,99399.00
2022-10-25T18:18:04.809Z,99394.00
2022-10-25T18:19:38.207Z,99396.00
2022-10-25T18:21:14.153Z,99395.00
2022-10-25T18:22:47.593Z,99397.00
2022-10-25T18:24:21.874Z,99400.00
2022-10-25T18:27:35.531Z,99399.00
2022-10-25T18:29:10.797Z,99392.00
2022-10-25T18:30:45.451Z,99394.00
2022-10-25T18:32:18.680Z,99386.00
2022-10-25T18:33:51.847Z,99394.00
2022-10-25T18:35:25.175Z,99392.00
2022-10-25T18:36:58.467Z,99390.00
2022-10-25T18:38:31.855Z,99400.00
2022-10-25T18:40:07.305Z,99396.00
2022-10-25T18:41:42.453Z,99398.00
2022-10-25T18:43:15.772Z,99392.00
2022-10-25T18:44:50.556Z,99399.00
2022-10-25T18:46:29.273Z,99393.00
2022-10-25T18:48:02.736Z,99396.00
2022-10-25T18:49:36.542Z,99396.00
2022-10-25T18:51:14.374Z,99399.00
2022-10-25T18:52:48.691Z,99396.00
2022-10-25T18:54:21.979Z,99396.00
2022-10-25T18:55:55.186Z,99396.00
2022-10-25T18:57:31.234Z,99403.00
2022-10-25T18:59:05.171Z,99401.00
2022-10-25T19:00:49.457Z,99396.00
2022-10-25T19:02:24.168Z,99396.00
2022-10-25T19:03:58.578Z,99398.00
2022-10-25T19:05:32.119Z,99400.00
2022-10-25T19:07:05.249Z,99399.00
2022-10-25T19:08:39.414Z,99398.00
2022-10-25T19:10:13.158Z,99400.00
2022-10-25T19:11:46.565Z,99386.00
2022-10-25T19:13:20.526Z,99386.00
2022-10-25T19:14:53.904Z,99390.00
2022-10-25T19:16:27.471Z,99378.00
2022-10-25T19:18:13.906Z,99377.00
2022-10-25T19:19:47.473Z,99388.00
2022-10-25T19:21:21.958Z,99386.00
2022-10-25T19:22:58.502Z,99382.00
2022-10-25T19:24:33.654Z,99380.00
2022-10-25T19:26:08.525Z,99389.00